sensor_id;sensor_type;location;lat;lon;timestamp;P1;durP1;ratioP1;P2;durP2;ratioP2
15114;SDS011;7658;51.456;7.622;2024-01-06T00:01:47;20.77;;;16.17;;
15114;SDS011;7658;51.456;7.622;2024-01-06T00:04:13;22.77;;;17.10;;
15114;SDS011;7658;51.456;7.622;2024-01-06T00:06:39;21.83;;;16.23;;
15114;SDS011;7658;51.456;7.622;2024-01-06T00:09:04;22.03;;;16.13;;
15114;SDS011;7658;51.456;7.622;2024-01-06T00:11:30;24.40;;;17.93;;
15114;SDS011;7658;51.456;7.622;2024-01-06T00:13:56;26.53;;;19.40;;
15114;SDS011;7658;51.456;7.622;2024-01-06T00:16:22;26.50;;;18.07;;
15114;SDS011;7658;51.456;7.622;2024-01-06T00:18:47;27.53;;;18.63;;
15114;SDS011;7658;51.456;7.622;2024-01-06T00:21:13;26.50;;;18.47;;
15114;SDS011;7658;51.456;7.622;2024-01-06T00:23:39;28.27;;;19.67;;
15114;SDS011;7658;51.456;7.622;2024-01-06T00:26:05;27.60;;;18.93;;
15114;SDS011;7658;51.456;7.622;2024-01-06T00:28:31;26.80;;;17.93;;
15114;SDS011;7658;51.456;7.622;2024-01-06T00:30:57;26.50;;;18.10;;
15114;SDS011;7658;51.456;7.622;2024-01-06T00:33:23;27.40;;;20.30;;
15114;SDS011;7658;51.456;7.622;2024-01-06T00:35:49;28.10;;;19.57;;
15114;SDS011;7658;51.456;7.622;2024-01-06T00:38:14;28.53;;;19.80;;
15114;SDS011;7658;51.456;7.622;2024-01-06T00:40:40;28.87;;;20.03;;
15114;SDS011;7658;51.456;7.622;2024-01-06T00:43:06;29.47;;;21.57;;
15114;SDS011;7658;51.456;7.622;2024-01-06T00:45:32;27.87;;;19.80;;
15114;SDS011;7658;51.456;7.622;2024-01-06T00:47:58;28.67;;;20.70;;
15114;SDS011;7658;51.456;7.622;2024-01-06T00:50:23;30.73;;;19.23;;
15114;SDS011;7658;51.456;7.622;2024-01-06T00:52:49;27.73;;;19.43;;
15114;SDS011;7658;51.456;7.622;2024-01-06T00:55:20;32.27;;;20.30;;
15114;SDS011;7658;51.456;7.622;2024-01-06T00:57:46;27.83;;;19.77;;
15114;SDS011;7658;51.456;7.622;2024-01-06T01:00:13;26.67;;;19.20;;
15114;SDS011;7658;51.456;7.622;2024-01-06T01:02:39;29.23;;;19.27;;
15114;SDS011;7658;51.456;7.622;2024-01-06T01:05:05;25.80;;;19.30;;
15114;SDS011;7658;51.456;7.622;2024-01-06T01:07:32;29.80;;;19.60;;
15114;SDS011;7658;51.456;7.622;2024-01-06T01:09:58;32.63;;;19.77;;
15114;SDS011;7658;51.456;7.622;2024-01-06T01:12:24;28.77;;;20.37;;
15114;SDS011;7658;51.456;7.622;2024-01-06T01:14:50;31.73;;;19.97;;
15114;SDS011;7658;51.456;7.622;2024-01-06T01:17:17;32.70;;;22.10;;
15114;SDS011;7658;51.456;7.622;2024-01-06T01:19:43;26.43;;;18.47;;
15114;SDS011;7658;51.456;7.622;2024-01-06T01:22:09;30.93;;;19.93;;
15114;SDS011;7658;51.456;7.622;2024-01-06T01:24:35;30.80;;;20.13;;
15114;SDS011;7658;51.456;7.622;2024-01-06T01:27:01;32.43;;;21.27;;
15114;SDS011;7658;51.456;7.622;2024-01-06T01:29:26;31.33;;;19.67;;
15114;SDS011;7658;51.456;7.622;2024-01-06T01:31:52;33.20;;;21.23;;
15114;SDS011;7658;51.456;7.622;2024-01-06T01:34:18;31.43;;;20.50;;
15114;SDS011;7658;51.456;7.622;2024-01-06T01:36:44;28.93;;;18.77;;
15114;SDS011;7658;51.456;7.622;2024-01-06T01:39:10;29.07;;;19.40;;
15114;SDS011;7658;51.456;7.622;2024-01-06T01:41:36;32.33;;;21.40;;
15114;SDS011;7658;51.456;7.622;2024-01-06T01:44:02;32.57;;;22.17;;
15114;SDS011;7658;51.456;7.622;2024-01-06T01:46:28;34.23;;;22.33;;
15114;SDS011;7658;51.456;7.622;2024-01-06T01:48:55;32.00;;;21.30;;
15114;SDS011;7658;51.456;7.622;2024-01-06T01:51:22;32.93;;;20.37;;
15114;SDS011;7658;51.456;7.622;2024-01-06T01:53:51;35.13;;;21.87;;
15114;SDS011;7658;51.456;7.622;2024-01-06T01:56:17;33.87;;;22.13;;
15114;SDS011;7658;51.456;7.622;2024-01-06T01:58:44;33.50;;;21.43;;
15114;SDS011;7658;51.456;7.622;2024-01-06T02:01:11;44.23;;;23.87;;
15114;SDS011;7658;51.456;7.622;2024-01-06T02:03:37;37.60;;;22.37;;
15114;SDS011;7658;51.456;7.622;2024-01-06T02:06:05;34.33;;;21.47;;
15114;SDS011;7658;51.456;7.622;2024-01-06T02:08:31;38.67;;;22.20;;
15114;SDS011;7658;51.456;7.622;2024-01-06T02:10:57;34.40;;;21.77;;
15114;SDS011;7658;51.456;7.622;2024-01-06T02:13:23;37.17;;;22.53;;
15114;SDS011;7658;51.456;7.622;2024-01-06T02:15:49;38.97;;;22.27;;
15114;SDS011;7658;51.456;7.622;2024-01-06T02:18:15;40.87;;;23.47;;
15114;SDS011;7658;51.456;7.622;2024-01-06T02:20:44;38.43;;;23.47;;
15114;SDS011;7658;51.456;7.622;2024-01-06T02:23:11;36.80;;;22.67;;
15114;SDS011;7658;51.456;7.622;2024-01-06T02:25:37;39.33;;;21.83;;
15114;SDS011;7658;51.456;7.622;2024-01-06T02:28:03;42.87;;;23.53;;
15114;SDS011;7658;51.456;7.622;2024-01-06T02:30:29;36.10;;;22.43;;
15114;SDS011;7658;51.456;7.622;2024-01-06T02:32:54;39.03;;;22.33;;
15114;SDS011;7658;51.456;7.622;2024-01-06T02:35:20;40.53;;;23.83;;
15114;SDS011;7658;51.456;7.622;2024-01-06T02:37:46;44.60;;;24.37;;
15114;SDS011;7658;51.456;7.622;2024-01-06T02:40:12;39.40;;;23.17;;
15114;SDS011;7658;51.456;7.622;2024-01-06T02:42:38;42.77;;;24.07;;
15114;SDS011;7658;51.456;7.622;2024-01-06T02:45:04;39.70;;;24.37;;
15114;SDS011;7658;51.456;7.622;2024-01-06T02:47:31;42.23;;;24.37;;
15114;SDS011;7658;51.456;7.622;2024-01-06T02:49:57;45.97;;;25.40;;
15114;SDS011;7658;51.456;7.622;2024-01-06T02:52:23;44.67;;;25.40;;
15114;SDS011;7658;51.456;7.622;2024-01-06T02:54:48;42.83;;;23.73;;
15114;SDS011;7658;51.456;7.622;2024-01-06T02:57:14;44.13;;;24.50;;
15114;SDS011;7658;51.456;7.622;2024-01-06T02:59:40;43.90;;;25.50;;
15114;SDS011;7658;51.456;7.622;2024-01-06T03:02:06;42.93;;;24.83;;
15114;SDS011;7658;51.456;7.622;2024-01-06T03:04:32;42.87;;;23.83;;
15114;SDS011;7658;51.456;7.622;2024-01-06T03:06:58;38.33;;;22.77;;
15114;SDS011;7658;51.456;7.622;2024-01-06T03:09:23;39.47;;;23.43;;
15114;SDS011;7658;51.456;7.622;2024-01-06T03:11:49;39.67;;;21.57;;
15114;SDS011;7658;51.456;7.622;2024-01-06T03:14:15;36.13;;;22.53;;
15114;SDS011;7658;51.456;7.622;2024-01-06T03:16:41;29.97;;;18.53;;
15114;SDS011;7658;51.456;7.622;2024-01-06T03:19:06;30.17;;;18.07;;
15114;SDS011;7658;51.456;7.622;2024-01-06T03:21:32;27.13;;;17.73;;
15114;SDS011;7658;51.456;7.622;2024-01-06T03:23:58;21.97;;;15.27;;
15114;SDS011;7658;51.456;7.622;2024-01-06T03:26:24;21.83;;;14.50;;
15114;SDS011;7658;51.456;7.622;2024-01-06T03:28:49;21.57;;;13.83;;
15114;SDS011;7658;51.456;7.622;2024-01-06T03:31:15;22.63;;;13.33;;
15114;SDS011;7658;51.456;7.622;2024-01-06T03:33:42;21.63;;;13.43;;
15114;SDS011;7658;51.456;7.622;2024-01-06T03:36:09;21.33;;;13.50;;
15114;SDS011;7658;51.456;7.622;2024-01-06T03:38:34;23.40;;;14.57;;
15114;SDS011;7658;51.456;7.622;2024-01-06T03:41:00;21.10;;;13.17;;
15114;SDS011;7658;51.456;7.622;2024-01-06T03:43:26;20.20;;;13.00;;
15114;SDS011;7658;51.456;7.622;2024-01-06T03:45:52;19.30;;;12.07;;
15114;SDS011;7658;51.456;7.622;2024-01-06T03:48:18;19.87;;;13.00;;
15114;SDS011;7658;51.456;7.622;2024-01-06T03:50:43;18.97;;;13.10;;
15114;SDS011;7658;51.456;7.622;2024-01-06T03:53:09;22.20;;;14.10;;
15114;SDS011;7658;51.456;7.622;2024-01-06T03:55:35;20.77;;;13.50;;
15114;SDS011;7658;51.456;7.622;2024-01-06T03:58:01;21.70;;;13.87;;
15114;SDS011;7658;51.456;7.622;2024-01-06T04:00:27;23.07;;;15.30;;
15114;SDS011;7658;51.456;7.622;2024-01-06T04:02:54;20.50;;;14.40;;
15114;SDS011;7658;51.456;7.622;2024-01-06T04:05:20;22.00;;;14.57;;
15114;SDS011;7658;51.456;7.622;2024-01-06T04:07:45;23.50;;;14.97;;
15114;SDS011;7658;51.456;7.622;2024-01-06T04:10:11;26.00;;;15.47;;
15114;SDS011;7658;51.456;7.622;2024-01-06T04:12:37;27.50;;;17.00;;
15114;SDS011;7658;51.456;7.622;2024-01-06T04:15:03;28.20;;;17.57;;
15114;SDS011;7658;51.456;7.622;2024-01-06T04:17:29;26.20;;;16.93;;
15114;SDS011;7658;51.456;7.622;2024-01-06T04:19:55;29.37;;;17.97;;
15114;SDS011;7658;51.456;7.622;2024-01-06T04:22:21;30.90;;;19.40;;
15114;SDS011;7658;51.456;7.622;2024-01-06T04:24:47;29.93;;;18.07;;
15114;SDS011;7658;51.456;7.622;2024-01-06T04:27:13;38.00;;;20.70;;
15114;SDS011;7658;51.456;7.622;2024-01-06T04:29:39;40.23;;;21.43;;
15114;SDS011;7658;51.456;7.622;2024-01-06T04:32:04;41.03;;;21.73;;
15114;SDS011;7658;51.456;7.622;2024-01-06T04:34:32;43.33;;;22.03;;
15114;SDS011;7658;51.456;7.622;2024-01-06T04:36:58;46.43;;;23.40;;
15114;SDS011;7658;51.456;7.622;2024-01-06T04:39:24;44.17;;;22.43;;
15114;SDS011;7658;51.456;7.622;2024-01-06T04:41:49;47.37;;;23.00;;
15114;SDS011;7658;51.456;7.622;2024-01-06T04:44:15;44.47;;;22.60;;
15114;SDS011;7658;51.456;7.622;2024-01-06T04:46:41;39.07;;;22.57;;
15114;SDS011;7658;51.456;7.622;2024-01-06T04:49:07;41.20;;;22.00;;
15114;SDS011;7658;51.456;7.622;2024-01-06T04:51:32;39.80;;;21.73;;
15114;SDS011;7658;51.456;7.622;2024-01-06T04:53:58;35.77;;;19.97;;
15114;SDS011;7658;51.456;7.622;2024-01-06T04:56:24;39.97;;;22.67;;
15114;SDS011;7658;51.456;7.622;2024-01-06T04:58:50;41.10;;;20.60;;
15114;SDS011;7658;51.456;7.622;2024-01-06T05:01:15;36.87;;;21.03;;
15114;SDS011;7658;51.456;7.622;2024-01-06T05:03:41;40.23;;;21.20;;
15114;SDS011;7658;51.456;7.622;2024-01-06T05:06:07;43.73;;;22.23;;
15114;SDS011;7658;51.456;7.622;2024-01-06T05:08:33;39.83;;;21.37;;
15114;SDS011;7658;51.456;7.622;2024-01-06T05:10:59;40.40;;;19.87;;
15114;SDS011;7658;51.456;7.622;2024-01-06T05:13:25;43.77;;;21.23;;
15114;SDS011;7658;51.456;7.622;2024-01-06T05:15:51;42.37;;;22.20;;
15114;SDS011;7658;51.456;7.622;2024-01-06T05:18:16;43.73;;;22.30;;
15114;SDS011;7658;51.456;7.622;2024-01-06T05:20:42;46.00;;;22.30;;
15114;SDS011;7658;51.456;7.622;2024-01-06T05:23:08;38.90;;;20.17;;
15114;SDS011;7658;51.456;7.622;2024-01-06T05:25:34;43.67;;;20.10;;
15114;SDS011;7658;51.456;7.622;2024-01-06T05:28:00;38.90;;;21.10;;
15114;SDS011;7658;51.456;7.622;2024-01-06T05:30:26;35.90;;;20.10;;
15114;SDS011;7658;51.456;7.622;2024-01-06T05:32:51;38.40;;;20.67;;
15114;SDS011;7658;51.456;7.622;2024-01-06T05:35:17;42.27;;;22.30;;
15114;SDS011;7658;51.456;7.622;2024-01-06T05:37:43;40.90;;;21.87;;
15114;SDS011;7658;51.456;7.622;2024-01-06T05:40:09;46.83;;;22.90;;
15114;SDS011;7658;51.456;7.622;2024-01-06T05:42:34;41.67;;;20.97;;
15114;SDS011;7658;51.456;7.622;2024-01-06T05:45:00;45.63;;;23.37;;
15114;SDS011;7658;51.456;7.622;2024-01-06T05:47:26;48.77;;;24.07;;
15114;SDS011;7658;51.456;7.622;2024-01-06T05:49:52;43.47;;;22.73;;
15114;SDS011;7658;51.456;7.622;2024-01-06T05:52:17;47.10;;;23.97;;
15114;SDS011;7658;51.456;7.622;2024-01-06T05:54:43;47.90;;;24.43;;
15114;SDS011;7658;51.456;7.622;2024-01-06T05:57:09;47.60;;;23.23;;
15114;SDS011;7658;51.456;7.622;2024-01-06T05:59:35;40.10;;;21.20;;
15114;SDS011;7658;51.456;7.622;2024-01-06T06:02:01;44.70;;;22.90;;
15114;SDS011;7658;51.456;7.622;2024-01-06T06:04:27;44.87;;;22.27;;
15114;SDS011;7658;51.456;7.622;2024-01-06T06:06:52;45.97;;;23.17;;
15114;SDS011;7658;51.456;7.622;2024-01-06T06:09:18;39.23;;;21.27;;
15114;SDS011;7658;51.456;7.622;2024-01-06T06:11:45;37.53;;;21.37;;
15114;SDS011;7658;51.456;7.622;2024-01-06T06:14:11;40.27;;;20.50;;
15114;SDS011;7658;51.456;7.622;2024-01-06T06:16:38;39.27;;;20.33;;
15114;SDS011;7658;51.456;7.622;2024-01-06T06:19:03;43.33;;;21.20;;
15114;SDS011;7658;51.456;7.622;2024-01-06T06:21:29;42.57;;;20.97;;
15114;SDS011;7658;51.456;7.622;2024-01-06T06:23:55;41.93;;;21.17;;
15114;SDS011;7658;51.456;7.622;2024-01-06T06:26:21;40.47;;;21.50;;
15114;SDS011;7658;51.456;7.622;2024-01-06T06:28:47;39.00;;;21.30;;
15114;SDS011;7658;51.456;7.622;2024-01-06T06:31:13;41.93;;;21.73;;
15114;SDS011;7658;51.456;7.622;2024-01-06T06:33:38;48.97;;;22.20;;
15114;SDS011;7658;51.456;7.622;2024-01-06T06:36:04;45.87;;;22.67;;
15114;SDS011;7658;51.456;7.622;2024-01-06T06:38:31;41.53;;;20.40;;
15114;SDS011;7658;51.456;7.622;2024-01-06T06:40:57;48.00;;;21.87;;
15114;SDS011;7658;51.456;7.622;2024-01-06T06:43:22;40.00;;;21.07;;
15114;SDS011;7658;51.456;7.622;2024-01-06T06:45:48;44.20;;;22.97;;
15114;SDS011;7658;51.456;7.622;2024-01-06T06:48:14;37.13;;;21.07;;
15114;SDS011;7658;51.456;7.622;2024-01-06T06:50:40;38.57;;;19.90;;
15114;SDS011;7658;51.456;7.622;2024-01-06T06:53:06;38.23;;;20.13;;
15114;SDS011;7658;51.456;7.622;2024-01-06T06:55:32;36.43;;;18.57;;
15114;SDS011;7658;51.456;7.622;2024-01-06T06:57:58;40.90;;;19.87;;
15114;SDS011;7658;51.456;7.622;2024-01-06T07:00:24;39.33;;;20.07;;
15114;SDS011;7658;51.456;7.622;2024-01-06T07:02:50;38.60;;;20.13;;
15114;SDS011;7658;51.456;7.622;2024-01-06T07:05:16;41.53;;;22.20;;
15114;SDS011;7658;51.456;7.622;2024-01-06T07:07:42;40.23;;;22.57;;
15114;SDS011;7658;51.456;7.622;2024-01-06T07:10:12;42.33;;;21.60;;
15114;SDS011;7658;51.456;7.622;2024-01-06T07:12:38;45.83;;;23.73;;
15114;SDS011;7658;51.456;7.622;2024-01-06T07:15:04;42.97;;;20.77;;
15114;SDS011;7658;51.456;7.622;2024-01-06T07:17:30;39.70;;;19.87;;
15114;SDS011;7658;51.456;7.622;2024-01-06T07:19:56;41.50;;;20.83;;
15114;SDS011;7658;51.456;7.622;2024-01-06T07:22:21;36.83;;;18.73;;
15114;SDS011;7658;51.456;7.622;2024-01-06T07:24:47;35.13;;;19.53;;
15114;SDS011;7658;51.456;7.622;2024-01-06T07:27:13;38.00;;;19.57;;
15114;SDS011;7658;51.456;7.622;2024-01-06T07:29:40;38.70;;;20.13;;
15114;SDS011;7658;51.456;7.622;2024-01-06T07:32:05;35.47;;;18.40;;
15114;SDS011;7658;51.456;7.622;2024-01-06T07:34:31;38.90;;;18.93;;
15114;SDS011;7658;51.456;7.622;2024-01-06T07:36:58;36.40;;;19.47;;
15114;SDS011;7658;51.456;7.622;2024-01-06T07:39:23;29.30;;;17.33;;
15114;SDS011;7658;51.456;7.622;2024-01-06T07:41:50;33.77;;;18.80;;
15114;SDS011;7658;51.456;7.622;2024-01-06T07:44:16;33.00;;;18.87;;
15114;SDS011;7658;51.456;7.622;2024-01-06T07:46:47;32.27;;;17.87;;
15114;SDS011;7658;51.456;7.622;2024-01-06T07:49:13;38.60;;;19.40;;
15114;SDS011;7658;51.456;7.622;2024-01-06T07:51:40;30.73;;;17.77;;
15114;SDS011;7658;51.456;7.622;2024-01-06T07:54:06;32.17;;;17.90;;
15114;SDS011;7658;51.456;7.622;2024-01-06T07:56:34;38.07;;;19.37;;
15114;SDS011;7658;51.456;7.622;2024-01-06T07:59:00;32.43;;;18.33;;
15114;SDS011;7658;51.456;7.622;2024-01-06T08:01:26;30.87;;;19.03;;
15114;SDS011;7658;51.456;7.622;2024-01-06T08:03:52;33.27;;;18.00;;
15114;SDS011;7658;51.456;7.622;2024-01-06T08:06:18;37.63;;;19.43;;
15114;SDS011;7658;51.456;7.622;2024-01-06T08:08:44;38.80;;;20.47;;
15114;SDS011;7658;51.456;7.622;2024-01-06T08:11:11;37.07;;;21.40;;
15114;SDS011;7658;51.456;7.622;2024-01-06T08:13:37;43.17;;;23.10;;
15114;SDS011;7658;51.456;7.622;2024-01-06T08:16:03;38.17;;;21.63;;
15114;SDS011;7658;51.456;7.622;2024-01-06T08:18:29;37.17;;;20.77;;
15114;SDS011;7658;51.456;7.622;2024-01-06T08:20:55;35.40;;;19.47;;
15114;SDS011;7658;51.456;7.622;2024-01-06T08:23:21;38.30;;;21.33;;
15114;SDS011;7658;51.456;7.622;2024-01-06T08:25:47;41.97;;;23.37;;
15114;SDS011;7658;51.456;7.622;2024-01-06T08:28:13;39.33;;;21.03;;
15114;SDS011;7658;51.456;7.622;2024-01-06T08:30:43;38.60;;;21.27;;
15114;SDS011;7658;51.456;7.622;2024-01-06T08:33:09;42.17;;;22.87;;
15114;SDS011;7658;51.456;7.622;2024-01-06T08:35:35;46.20;;;22.93;;
15114;SDS011;7658;51.456;7.622;2024-01-06T08:38:05;40.47;;;22.17;;
15114;SDS011;7658;51.456;7.622;2024-01-06T08:40:32;40.43;;;21.37;;
15114;SDS011;7658;51.456;7.622;2024-01-06T08:42:58;43.97;;;22.57;;
15114;SDS011;7658;51.456;7.622;2024-01-06T08:45:24;36.00;;;21.13;;
15114;SDS011;7658;51.456;7.622;2024-01-06T08:47:50;36.70;;;21.13;;
15114;SDS011;7658;51.456;7.622;2024-01-06T08:50:15;40.40;;;21.43;;
15114;SDS011;7658;51.456;7.622;2024-01-06T08:52:41;37.17;;;20.60;;
15114;SDS011;7658;51.456;7.622;2024-01-06T08:55:07;40.60;;;20.30;;
15114;SDS011;7658;51.456;7.622;2024-01-06T08:57:33;43.50;;;21.40;;
15114;SDS011;7658;51.456;7.622;2024-01-06T08:59:59;42.23;;;21.50;;
15114;SDS011;7658;51.456;7.622;2024-01-06T09:02:24;43.50;;;22.90;;
15114;SDS011;7658;51.456;7.622;2024-01-06T09:04:50;46.37;;;24.67;;
15114;SDS011;7658;51.456;7.622;2024-01-06T09:07:16;40.13;;;22.87;;
15114;SDS011;7658;51.456;7.622;2024-01-06T09:09:42;40.73;;;21.17;;
15114;SDS011;7658;51.456;7.622;2024-01-06T09:12:09;42.10;;;21.67;;
15114;SDS011;7658;51.456;7.622;2024-01-06T09:14:34;52.03;;;24.10;;
15114;SDS011;7658;51.456;7.622;2024-01-06T09:17:00;50.37;;;24.50;;
15114;SDS011;7658;51.456;7.622;2024-01-06T09:19:26;53.83;;;26.07;;
15114;SDS011;7658;51.456;7.622;2024-01-06T09:21:53;51.07;;;26.53;;
15114;SDS011;7658;51.456;7.622;2024-01-06T09:24:20;58.07;;;26.93;;
15114;SDS011;7658;51.456;7.622;2024-01-06T09:26:46;56.20;;;26.40;;
15114;SDS011;7658;51.456;7.622;2024-01-06T09:29:11;50.37;;;25.10;;
15114;SDS011;7658;51.456;7.622;2024-01-06T09:31:37;50.27;;;25.27;;
15114;SDS011;7658;51.456;7.622;2024-01-06T09:34:03;49.53;;;23.37;;
15114;SDS011;7658;51.456;7.622;2024-01-06T09:36:32;41.17;;;22.30;;
15114;SDS011;7658;51.456;7.622;2024-01-06T09:38:58;47.10;;;22.80;;
15114;SDS011;7658;51.456;7.622;2024-01-06T09:41:23;46.27;;;23.57;;
15114;SDS011;7658;51.456;7.622;2024-01-06T09:43:50;42.47;;;24.53;;
15114;SDS011;7658;51.456;7.622;2024-01-06T09:48:52;41.23;;;21.77;;
15114;SDS011;7658;51.456;7.622;2024-01-06T09:51:18;40.60;;;21.10;;
15114;SDS011;7658;51.456;7.622;2024-01-06T09:53:58;32.00;;;18.90;;
15114;SDS011;7658;51.456;7.622;2024-01-06T09:56:26;34.77;;;18.33;;
15114;SDS011;7658;51.456;7.622;2024-01-06T09:58:53;30.83;;;17.83;;
15114;SDS011;7658;51.456;7.622;2024-01-06T10:01:19;34.77;;;19.43;;
15114;SDS011;7658;51.456;7.622;2024-01-06T10:03:45;32.33;;;17.37;;
15114;SDS011;7658;51.456;7.622;2024-01-06T10:06:13;31.73;;;18.40;;
15114;SDS011;7658;51.456;7.622;2024-01-06T10:08:39;33.73;;;19.20;;
15114;SDS011;7658;51.456;7.622;2024-01-06T10:11:07;30.27;;;17.97;;
15114;SDS011;7658;51.456;7.622;2024-01-06T10:13:36;28.50;;;17.77;;
15114;SDS011;7658;51.456;7.622;2024-01-06T10:16:05;30.83;;;18.40;;
15114;SDS011;7658;51.456;7.622;2024-01-06T10:18:32;31.13;;;17.77;;
15114;SDS011;7658;51.456;7.622;2024-01-06T10:20:59;30.73;;;18.57;;
15114;SDS011;7658;51.456;7.622;2024-01-06T10:23:28;28.73;;;16.70;;
15114;SDS011;7658;51.456;7.622;2024-01-06T10:25:54;23.87;;;15.90;;
15114;SDS011;7658;51.456;7.622;2024-01-06T10:28:21;33.83;;;18.87;;
15114;SDS011;7658;51.456;7.622;2024-01-06T10:30:53;31.17;;;18.53;;
15114;SDS011;7658;51.456;7.622;2024-01-06T10:33:21;31.23;;;18.77;;
15114;SDS011;7658;51.456;7.622;2024-01-06T10:35:48;28.37;;;17.87;;
15114;SDS011;7658;51.456;7.622;2024-01-06T10:38:17;31.63;;;19.33;;
15114;SDS011;7658;51.456;7.622;2024-01-06T10:40:58;31.30;;;19.73;;
15114;SDS011;7658;51.456;7.622;2024-01-06T10:43:25;35.63;;;18.73;;
15114;SDS011;7658;51.456;7.622;2024-01-06T10:45:57;30.90;;;18.63;;
15114;SDS011;7658;51.456;7.622;2024-01-06T10:48:25;31.27;;;18.40;;
15114;SDS011;7658;51.456;7.622;2024-01-06T10:50:51;30.23;;;17.77;;
15114;SDS011;7658;51.456;7.622;2024-01-06T10:53:18;37.30;;;19.47;;
15114;SDS011;7658;51.456;7.622;2024-01-06T10:55:46;34.50;;;18.80;;
15114;SDS011;7658;51.456;7.622;2024-01-06T10:58:14;31.03;;;17.23;;
15114;SDS011;7658;51.456;7.622;2024-01-06T11:00:42;31.23;;;17.17;;
15114;SDS011;7658;51.456;7.622;2024-01-06T11:03:07;28.97;;;16.60;;
15114;SDS011;7658;51.456;7.622;2024-01-06T11:05:35;31.97;;;16.97;;
15114;SDS011;7658;51.456;7.622;2024-01-06T11:08:03;31.90;;;17.57;;
15114;SDS011;7658;51.456;7.622;2024-01-06T11:10:29;27.53;;;16.40;;
15114;SDS011;7658;51.456;7.622;2024-01-06T11:13:12;26.93;;;16.60;;
15114;SDS011;7658;51.456;7.622;2024-01-06T11:26:52;34.30;;;16.80;;
15114;SDS011;7658;51.456;7.622;2024-01-06T11:29:22;36.47;;;17.73;;
15114;SDS011;7658;51.456;7.622;2024-01-06T11:34:53;34.07;;;18.47;;
15114;SDS011;7658;51.456;7.622;2024-01-06T11:37:25;39.10;;;19.57;;
15114;SDS011;7658;51.456;7.622;2024-01-06T11:40:01;41.13;;;19.37;;
15114;SDS011;7658;51.456;7.622;2024-01-06T11:42:33;41.53;;;21.37;;
15114;SDS011;7658;51.456;7.622;2024-01-06T11:45:06;40.90;;;19.60;;
15114;SDS011;7658;51.456;7.622;2024-01-06T11:47:33;36.53;;;19.73;;
15114;SDS011;7658;51.456;7.622;2024-01-06T11:50:00;40.60;;;20.00;;
15114;SDS011;7658;51.456;7.622;2024-01-06T11:52:29;41.07;;;22.03;;
15114;SDS011;7658;51.456;7.622;2024-01-06T11:54:59;38.90;;;20.47;;
15114;SDS011;7658;51.456;7.622;2024-01-06T11:57:25;40.97;;;19.87;;
15114;SDS011;7658;51.456;7.622;2024-01-06T11:59:52;39.50;;;20.20;;
15114;SDS011;7658;51.456;7.622;2024-01-06T12:02:18;38.17;;;19.67;;
15114;SDS011;7658;51.456;7.622;2024-01-06T12:04:51;39.47;;;20.43;;
15114;SDS011;7658;51.456;7.622;2024-01-06T12:07:18;33.13;;;18.90;;
15114;SDS011;7658;51.456;7.622;2024-01-06T12:09:46;40.03;;;21.53;;
15114;SDS011;7658;51.456;7.622;2024-01-06T12:12:17;39.37;;;20.33;;
15114;SDS011;7658;51.456;7.622;2024-01-06T12:14:43;39.07;;;21.73;;
15114;SDS011;7658;51.456;7.622;2024-01-06T12:17:11;41.20;;;20.77;;
15114;SDS011;7658;51.456;7.622;2024-01-06T12:19:39;38.67;;;20.97;;
15114;SDS011;7658;51.456;7.622;2024-01-06T12:22:11;44.67;;;22.53;;
15114;SDS011;7658;51.456;7.622;2024-01-06T12:24:41;42.33;;;23.07;;
15114;SDS011;7658;51.456;7.622;2024-01-06T12:27:10;44.73;;;22.60;;
15114;SDS011;7658;51.456;7.622;2024-01-06T12:29:42;45.53;;;23.17;;
15114;SDS011;7658;51.456;7.622;2024-01-06T12:32:09;38.57;;;21.40;;
15114;SDS011;7658;51.456;7.622;2024-01-06T12:34:35;38.90;;;21.00;;
15114;SDS011;7658;51.456;7.622;2024-01-06T12:37:01;39.93;;;18.97;;
15114;SDS011;7658;51.456;7.622;2024-01-06T12:39:28;34.60;;;19.07;;
15114;SDS011;7658;51.456;7.622;2024-01-06T12:41:55;37.50;;;18.23;;
15114;SDS011;7658;51.456;7.622;2024-01-06T12:44:21;36.97;;;18.90;;
15114;SDS011;7658;51.456;7.622;2024-01-06T12:46:48;39.33;;;20.23;;
15114;SDS011;7658;51.456;7.622;2024-01-06T12:49:14;41.63;;;20.83;;
15114;SDS011;7658;51.456;7.622;2024-01-06T12:51:40;35.57;;;19.90;;
15114;SDS011;7658;51.456;7.622;2024-01-06T12:54:06;41.20;;;21.70;;
15114;SDS011;7658;51.456;7.622;2024-01-06T12:56:31;40.37;;;20.93;;
15114;SDS011;7658;51.456;7.622;2024-01-06T12:58:57;34.67;;;19.73;;
15114;SDS011;7658;51.456;7.622;2024-01-06T13:01:23;35.87;;;19.20;;
15114;SDS011;7658;51.456;7.622;2024-01-06T13:03:49;33.10;;;18.77;;
15114;SDS011;7658;51.456;7.622;2024-01-06T13:06:15;35.10;;;18.33;;
15114;SDS011;7658;51.456;7.622;2024-01-06T13:08:41;37.60;;;21.40;;
15114;SDS011;7658;51.456;7.622;2024-01-06T13:11:08;58.27;;;27.60;;
15114;SDS011;7658;51.456;7.622;2024-01-06T13:13:34;56.73;;;26.97;;
15114;SDS011;7658;51.456;7.622;2024-01-06T13:16:00;47.27;;;25.20;;
15114;SDS011;7658;51.456;7.622;2024-01-06T13:18:28;52.70;;;25.27;;
15114;SDS011;7658;51.456;7.622;2024-01-06T13:20:54;53.83;;;26.73;;
15114;SDS011;7658;51.456;7.622;2024-01-06T13:23:20;48.17;;;26.20;;
15114;SDS011;7658;51.456;7.622;2024-01-06T13:25:46;53.23;;;24.73;;
15114;SDS011;7658;51.456;7.622;2024-01-06T13:28:12;44.77;;;22.70;;
15114;SDS011;7658;51.456;7.622;2024-01-06T13:30:37;46.10;;;20.47;;
15114;SDS011;7658;51.456;7.622;2024-01-06T13:33:07;39.07;;;19.23;;
15114;SDS011;7658;51.456;7.622;2024-01-06T13:35:34;32.33;;;16.97;;
15114;SDS011;7658;51.456;7.622;2024-01-06T13:38:01;29.47;;;16.43;;
15114;SDS011;7658;51.456;7.622;2024-01-06T13:40:29;25.57;;;15.00;;
15114;SDS011;7658;51.456;7.622;2024-01-06T13:42:55;27.33;;;15.10;;
15114;SDS011;7658;51.456;7.622;2024-01-06T13:45:21;21.70;;;12.97;;
15114;SDS011;7658;51.456;7.622;2024-01-06T13:47:47;24.53;;;14.60;;
15114;SDS011;7658;51.456;7.622;2024-01-06T13:50:16;25.27;;;14.77;;
15114;SDS011;7658;51.456;7.622;2024-01-06T13:52:43;27.87;;;16.00;;
15114;SDS011;7658;51.456;7.622;2024-01-06T13:55:10;31.20;;;17.67;;
15114;SDS011;7658;51.456;7.622;2024-01-06T13:57:36;29.73;;;16.57;;
15114;SDS011;7658;51.456;7.622;2024-01-06T14:00:09;32.03;;;16.67;;
15114;SDS011;7658;51.456;7.622;2024-01-06T14:02:36;30.83;;;17.90;;
15114;SDS011;7658;51.456;7.622;2024-01-06T14:05:03;31.03;;;18.03;;
15114;SDS011;7658;51.456;7.622;2024-01-06T14:07:30;30.63;;;17.70;;
15114;SDS011;7658;51.456;7.622;2024-01-06T14:09:55;30.57;;;18.30;;
15114;SDS011;7658;51.456;7.622;2024-01-06T14:12:21;46.97;;;20.93;;
15114;SDS011;7658;51.456;7.622;2024-01-06T14:14:48;46.50;;;21.93;;
15114;SDS011;7658;51.456;7.622;2024-01-06T14:17:13;61.67;;;25.07;;
15114;SDS011;7658;51.456;7.622;2024-01-06T14:19:39;49.90;;;23.77;;
15114;SDS011;7658;51.456;7.622;2024-01-06T14:22:05;43.53;;;19.73;;
15114;SDS011;7658;51.456;7.622;2024-01-06T14:24:31;39.07;;;19.80;;
15114;SDS011;7658;51.456;7.622;2024-01-06T14:26:56;33.67;;;17.83;;
15114;SDS011;7658;51.456;7.622;2024-01-06T14:29:22;28.23;;;16.10;;
15114;SDS011;7658;51.456;7.622;2024-01-06T14:31:49;23.43;;;13.73;;
15114;SDS011;7658;51.456;7.622;2024-01-06T14:34:14;23.90;;;12.40;;
15114;SDS011;7658;51.456;7.622;2024-01-06T14:36:41;19.07;;;12.97;;
15114;SDS011;7658;51.456;7.622;2024-01-06T14:39:15;24.33;;;14.57;;
15114;SDS011;7658;51.456;7.622;2024-01-06T14:41:47;22.77;;;15.03;;
15114;SDS011;7658;51.456;7.622;2024-01-06T14:44:14;25.87;;;15.70;;
15114;SDS011;7658;51.456;7.622;2024-01-06T14:46:40;30.63;;;17.13;;